sensor_id;sensor_type;location;lat;lon;timestamp;temperature;humidity
48206;DHT22;33995;48.202;16.260;2022-11-03T00:02:17;9.20;99.90
48206;DHT22;33995;48.202;16.260;2022-11-03T00:04:46;9.20;99.90
48206;DHT22;33995;48.202;16.260;2022-11-03T00:07:19;9.10;99.90
48206;DHT22;33995;48.202;16.260;2022-11-03T00:09:47;9.00;99.90
48206;DHT22;33995;48.202;16.260;2022-11-03T00:12:14;9.00;99.90
48206;DHT22;33995;48.202;16.260;2022-11-03T00:14:43;8.90;99.90
48206;DHT22;33995;48.202;16.260;2022-11-03T00:17:10;8.80;99.90
48206;DHT22;33995;48.202;16.260;2022-11-03T00:19:36;8.80;99.90
48206;DHT22;33995;48.202;16.260;2022-11-03T00:22:04;8.70;99.90
48206;DHT22;33995;48.202;16.260;2022-11-03T00:24:31;8.70;99.90
48206;DHT22;33995;48.202;16.260;2022-11-03T00:26:58;8.70;99.90
48206;DHT22;33995;48.202;16.260;2022-11-03T00:29:26;8.70;99.90
48206;DHT22;33995;48.202;16.260;2022-11-03T00:31:54;8.70;99.90
48206;DHT22;33995;48.202;16.260;2022-11-03T00:34:22;8.60;99.90
48206;DHT22;33995;48.202;16.260;2022-11-03T00:36:49;8.60;99.90
48206;DHT22;33995;48.202;16.260;2022-11-03T00:39:16;8.60;99.90
48206;DHT22;33995;48.202;16.260;2022-11-03T00:41:46;8.50;99.90
48206;DHT22;33995;48.202;16.260;2022-11-03T00:44:13;8.50;99.90
48206;DHT22;33995;48.202;16.260;2022-11-03T00:46:40;8.50;99.90
48206;DHT22;33995;48.202;16.260;2022-11-03T00:49:06;8.40;99.90
48206;DHT22;33995;48.202;16.260;2022-11-03T00:51:33;8.40;99.90
48206;DHT22;33995;48.202;16.260;2022-11-03T00:54:04;8.40;99.90
48206;DHT22;33995;48.202;16.260;2022-11-03T00:56:37;8.50;99.90
48206;DHT22;33995;48.202;16.260;2022-11-03T00:59:06;8.40;99.90
48206;DHT22;33995;48.202;16.260;2022-11-03T01:01:42;8.20;99.90
48206;DHT22;33995;48.202;16.260;2022-11-03T07:23:32;10.30;99.90
48206;DHT22;33995;48.202;16.260;2022-11-03T07:26:00;10.40;99.90
48206;DHT22;33995;48.202;16.260;2022-11-03T07:28:35;10.50;99.90
48206;DHT22;33995;48.202;16.260;2022-11-03T07:31:34;10.50;99.90
48206;DHT22;33995;48.202;16.260;2022-11-03T07:34:11;10.60;99.90
48206;DHT22;33995;48.202;16.260;2022-11-03T07:36:44;10.70;99.90
48206;DHT22;33995;48.202;16.260;2022-11-03T07:39:20;10.90;99.90
48206;DHT22;33995;48.202;16.260;2022-11-03T07:42:11;10.90;99.90
48206;DHT22;33995;48.202;16.260;2022-11-03T07:44:43;10.90;99.90
48206;DHT22;33995;48.202;16.260;2022-11-03T07:47:18;11.00;99.90
48206;DHT22;33995;48.202;16.260;2022-11-03T07:49:49;11.10;99.90
48206;DHT22;33995;48.202;16.260;2022-11-03T07:52:34;11.10;99.90
48206;DHT22;33995;48.202;16.260;2022-11-03T07:55:10;11.30;99.90
48206;DHT22;33995;48.202;16.260;2022-11-03T07:57:39;11.40;99.90
48206;DHT22;33995;48.202;16.260;2022-11-03T08:00:14;11.50;99.90
48206;DHT22;33995;48.202;16.260;2022-11-03T08:02:54;11.50;99.90
48206;DHT22;33995;48.202;16.260;2022-11-03T08:05:28;11.60;99.90
48206;DHT22;33995;48.202;16.260;2022-11-03T08:08:01;11.70;99.90
48206;DHT22;33995;48.202;16.260;2022-11-03T08:10:31;11.90;99.90
48206;DHT22;33995;48.202;16.260;2022-11-03T08:13:01;12.00;99.90
48206;DHT22;33995;48.202;16.260;2022-11-03T08:15:44;12.20;99.90
48206;DHT22;33995;48.202;16.260;2022-11-03T08:18:19;12.50;99.90
48206;DHT22;33995;48.202;16.260;2022-11-03T08:20:47;12.70;99.90
48206;DHT22;33995;48.202;16.260;2022-11-03T08:23:15;12.90;99.90
48206;DHT22;33995;48.202;16.260;2022-11-03T08:25:53;13.10;99.90
48206;DHT22;33995;48.202;16.260;2022-11-03T08:28:25;13.30;99.90
48206;DHT22;33995;48.202;16.260;2022-11-03T08:31:06;13.50;99.90
48206;DHT22;33995;48.202;16.260;2022-11-03T08:33:40;13.60;99.90
48206;DHT22;33995;48.202;16.260;2022-11-03T08:36:22;13.60;99.90
48206;DHT22;33995;48.202;16.260;2022-11-03T08:38:51;13.80;99.90
48206;DHT22;33995;48.202;16.260;2022-11-03T08:41:20;14.00;99.90
48206;DHT22;33995;48.202;16.260;2022-11-03T08:43:48;14.20;99.90
48206;DHT22;33995;48.202;16.260;2022-11-03T08:46:17;14.40;99.90
48206;DHT22;33995;48.202;16.260;2022-11-03T08:48:47;14.50;99.90
48206;DHT22;33995;48.202;16.260;2022-11-03T08:51:19;14.50;99.90
48206;DHT22;33995;48.202;16.260;2022-11-03T08:54:01;14.50;99.90
48206;DHT22;33995;48.202;16.260;2022-11-03T08:56:30;14.70;99.90
48206;DHT22;33995;48.202;16.260;2022-11-03T08:59:07;14.80;99.90
48206;DHT22;33995;48.202;16.260;2022-11-03T09:01:37;15.00;99.90
48206;DHT22;33995;48.202;16.260;2022-11-03T09:04:05;15.00;99.90
48206;DHT22;33995;48.202;16.260;2022-11-03T09:06:39;15.30;99.90
48206;DHT22;33995;48.202;16.260;2022-11-03T09:09:08;15.50;99.90
48206;DHT22;33995;48.202;16.260;2022-11-03T09:12:00;15.50;99.90
48206;DHT22;33995;48.202;16.260;2022-11-03T09:14:31;15.70;99.90
48206;DHT22;33995;48.202;16.260;2022-11-03T09:17:02;16.00;99.90
48206;DHT22;33995;48.202;16.260;2022-11-03T09:19:32;16.30;99.90
48206;DHT22;33995;48.202;16.260;2022-11-03T09:22:04;16.40;99.90
48206;DHT22;33995;48.202;16.260;2022-11-03T09:24:40;16.50;99.90
48206;DHT22;33995;48.202;16.260;2022-11-03T09:27:11;16.60;99.90
48206;DHT22;33995;48.202;16.260;2022-11-03T09:29:41;16.70;99.90
48206;DHT22;33995;48.202;16.260;2022-11-03T09:32:31;16.80;99.90
48206;DHT22;33995;48.202;16.260;2022-11-03T09:35:01;17.00;99.90
48206;DHT22;33995;48.202;16.260;2022-11-03T09:37:32;17.00;99.90
48206;DHT22;33995;48.202;16.260;2022-11-03T09:40:00;17.20;99.90
48206;DHT22;33995;48.202;16.260;2022-11-03T09:42:33;17.40;99.90
48206;DHT22;33995;48.202;16.260;2022-11-03T09:45:14;17.40;99.90
48206;DHT22;33995;48.202;16.260;2022-11-03T09:47:47;17.60;99.90
48206;DHT22;33995;48.202;16.260;2022-11-03T09:50:30;17.80;99.90
48206;DHT22;33995;48.202;16.260;2022-11-03T09:53:09;17.90;99.90
48206;DHT22;33995;48.202;16.260;2022-11-03T09:55:40;18.00;99.90
48206;DHT22;33995;48.202;16.260;2022-11-03T09:58:14;18.00;99.90
48206;DHT22;33995;48.202;16.260;2022-11-03T10:00:43;18.40;99.90
48206;DHT22;33995;48.202;16.260;2022-11-03T10:03:16;18.90;99.90
48206;DHT22;33995;48.202;16.260;2022-11-03T10:05:58;19.00;99.90
48206;DHT22;33995;48.202;16.260;2022-11-03T10:08:32;19.10;99.90
48206;DHT22;33995;48.202;16.260;2022-11-03T10:11:06;19.20;99.90
48206;DHT22;33995;48.202;16.260;2022-11-03T10:13:45;19.70;99.90
48206;DHT22;33995;48.202;16.260;2022-11-03T10:16:18;19.70;99.90
48206;DHT22;33995;48.202;16.260;2022-11-03T10:18:48;20.10;99.90
48206;DHT22;33995;48.202;16.260;2022-11-03T10:21:30;19.70;99.90
48206;DHT22;33995;48.202;16.260;2022-11-03T10:24:00;19.70;99.90
48206;DHT22;33995;48.202;16.260;2022-11-03T10:26:29;19.50;99.90
48206;DHT22;33995;48.202;16.260;2022-11-03T10:29:17;20.30;99.90
48206;DHT22;33995;48.202;16.260;2022-11-03T10:31:56;20.70;99.90
48206;DHT22;33995;48.202;16.260;2022-11-03T10:34:37;20.80;99.90
48206;DHT22;33995;48.202;16.260;2022-11-03T10:37:24;21.00;99.90
48206;DHT22;33995;48.202;16.260;2022-11-03T10:39:55;21.40;99.90
48206;DHT22;33995;48.202;16.260;2022-11-03T10:42:28;21.60;99.90
48206;DHT22;33995;48.202;16.260;2022-11-03T10:45:18;22.10;99.90
48206;DHT22;33995;48.202;16.260;2022-11-03T10:48:04;21.30;99.90
48206;DHT22;33995;48.202;16.260;2022-11-03T10:50:47;21.70;99.90
48206;DHT22;33995;48.202;16.260;2022-11-03T10:53:20;22.70;99.90
48206;DHT22;33995;48.202;16.260;2022-11-03T10:55:48;22.70;99.90
48206;DHT22;33995;48.202;16.260;2022-11-03T10:58:18;23.30;99.90
48206;DHT22;33995;48.202;16.260;2022-11-03T11:00:49;23.80;98.90
48206;DHT22;33995;48.202;16.260;2022-11-03T11:03:20;23.30;98.60
48206;DHT22;33995;48.202;16.260;2022-11-03T11:05:52;24.10;97.80
48206;DHT22;33995;48.202;16.260;2022-11-03T11:08:22;24.20;97.60
48206;DHT22;33995;48.202;16.260;2022-11-03T11:10:54;26.10;96.00
48206;DHT22;33995;48.202;16.260;2022-11-03T11:13:26;27.30;93.90
48206;DHT22;33995;48.202;16.260;2022-11-03T11:16:00;28.70;91.90
48206;DHT22;33995;48.202;16.260;2022-11-03T11:23:49;29.90;86.50
48206;DHT22;33995;48.202;16.260;2022-11-03T11:26:32;30.80;84.30
48206;DHT22;33995;48.202;16.260;2022-11-03T11:38:01;31.50;80.80
48206;DHT22;33995;48.202;16.260;2022-11-03T11:40:50;32.40;78.20
48206;DHT22;33995;48.202;16.260;2022-11-03T11:43:27;33.20;75.60
48206;DHT22;33995;48.202;16.260;2022-11-03T11:46:33;32.50;76.70
48206;DHT22;33995;48.202;16.260;2022-11-03T11:51:52;30.70;76.70
48206;DHT22;33995;48.202;16.260;2022-11-03T11:54:21;30.90;76.20
48206;DHT22;33995;48.202;16.260;2022-11-03T11:56:50;29.30;77.90
48206;DHT22;33995;48.202;16.260;2022-11-03T11:59:23;28.10;80.20
48206;DHT22;33995;48.202;16.260;2022-11-03T12:01:55;29.00;79.40
48206;DHT22;33995;48.202;16.260;2022-11-03T12:04:28;30.50;77.20
48206;DHT22;33995;48.202;16.260;2022-11-03T12:06:58;29.60;77.20
48206;DHT22;33995;48.202;16.260;2022-11-03T12:09:30;29.40;77.30
48206;DHT22;33995;48.202;16.260;2022-11-03T12:12:06;29.40;77.50
48206;DHT22;33995;48.202;16.260;2022-11-03T12:14:38;30.20;76.20
48206;DHT22;33995;48.202;16.260;2022-11-03T12:19:59;30.50;75.20
48206;DHT22;33995;48.202;16.260;2022-11-03T12:22:39;31.90;73.80
48206;DHT22;33995;48.202;16.260;2022-11-03T12:25:34;31.80;72.60
48206;DHT22;33995;48.202;16.260;2022-11-03T12:28:07;31.10;74.30
48206;DHT22;33995;48.202;16.260;2022-11-03T12:30:38;30.60;73.50
48206;DHT22;33995;48.202;16.260;2022-11-03T12:33:09;28.20;77.40
48206;DHT22;33995;48.202;16.260;2022-11-03T12:35:37;28.90;77.00
48206;DHT22;33995;48.202;16.260;2022-11-03T12:38:06;30.60;75.30
48206;DHT22;33995;48.202;16.260;2022-11-03T12:40:36;30.60;74.40
48206;DHT22;33995;48.202;16.260;2022-11-03T12:43:06;30.80;74.40
48206;DHT22;33995;48.202;16.260;2022-11-03T12:45:34;30.30;73.80
48206;DHT22;33995;48.202;16.260;2022-11-03T12:48:05;27.80;77.50
48206;DHT22;33995;48.202;16.260;2022-11-03T12:50:36;25.80;81.30
48206;DHT22;33995;48.202;16.260;2022-11-03T12:53:08;24.50;84.80
48206;DHT22;33995;48.202;16.260;2022-11-03T12:55:39;24.40;86.60
48206;DHT22;33995;48.202;16.260;2022-11-03T12:58:11;23.70;88.40
48206;DHT22;33995;48.202;16.260;2022-11-03T13:00:45;22.50;90.90
48206;DHT22;33995;48.202;16.260;2022-11-03T13:03:27;23.10;90.90
48206;DHT22;33995;48.202;16.260;2022-11-03T13:06:09;22.90;91.00
48206;DHT22;33995;48.202;16.260;2022-11-03T13:08:42;22.90;91.60
48206;DHT22;33995;48.202;16.260;2022-11-03T13:11:12;23.10;91.90
48206;DHT22;33995;48.202;16.260;2022-11-03T13:14:00;23.00;91.80
48206;DHT22;33995;48.202;16.260;2022-11-03T13:16:32;22.10;92.60
48206;DHT22;33995;48.202;16.260;2022-11-03T13:19:02;22.00;93.20
48206;DHT22;33995;48.202;16.260;2022-11-03T13:21:33;21.40;94.00
48206;DHT22;33995;48.202;16.260;2022-11-03T13:24:02;20.90;94.90
48206;DHT22;33995;48.202;16.260;2022-11-03T13:26:32;20.20;96.20
48206;DHT22;33995;48.202;16.260;2022-11-03T13:29:02;19.70;97.10
48206;DHT22;33995;48.202;16.260;2022-11-03T13:31:31;19.60;97.70
48206;DHT22;33995;48.202;16.260;2022-11-03T13:33:59;19.50;98.20
48206;DHT22;33995;48.202;16.260;2022-11-03T13:36:31;19.30;98.80
48206;DHT22;33995;48.202;16.260;2022-11-03T13:39:03;19.00;99.60
48206;DHT22;33995;48.202;16.260;2022-11-03T13:41:35;18.80;99.90
48206;DHT22;33995;48.202;16.260;2022-11-03T13:44:06;18.60;99.90
48206;DHT22;33995;48.202;16.260;2022-11-03T13:46:36;18.50;99.90
48206;DHT22;33995;48.202;16.260;2022-11-03T13:49:08;18.30;99.90
48206;DHT22;33995;48.202;16.260;2022-11-03T13:51:50;18.30;99.90
48206;DHT22;33995;48.202;16.260;2022-11-03T13:54:18;18.10;99.90
48206;DHT22;33995;48.202;16.260;2022-11-03T13:57:11;18.00;99.90
48206;DHT22;33995;48.202;16.260;2022-11-03T14:00:03;18.00;99.90
48206;DHT22;33995;48.202;16.260;2022-11-03T14:02:46;18.00;99.90
48206;DHT22;33995;48.202;16.260;2022-11-03T14:05:44;18.00;99.90
48206;DHT22;33995;48.202;16.260;2022-11-03T14:08:15;17.90;99.90
48206;DHT22;33995;48.202;16.260;2022-11-03T14:10:46;18.00;99.90
48206;DHT22;33995;48.202;16.260;2022-11-03T14:13:13;17.90;99.90
48206;DHT22;33995;48.202;16.260;2022-11-03T14:15:42;17.60;99.90
48206;DHT22;33995;48.202;16.260;2022-11-03T14:18:10;17.50;99.90
48206;DHT22;33995;48.202;16.260;2022-11-03T14:20:40;17.40;99.90
48206;DHT22;33995;48.202;16.260;2022-11-03T14:23:22;17.60;99.90
48206;DHT22;33995;48.202;16.260;2022-11-03T14:25:50;17.60;99.90
48206;DHT22;33995;48.202;16.260;2022-11-03T14:28:43;17.50;99.90
48206;DHT22;33995;48.202;16.260;2022-11-03T14:31:10;17.40;99.90
48206;DHT22;33995;48.202;16.260;2022-11-03T14:33:37;17.60;99.90
48206;DHT22;33995;48.202;16.260;2022-11-03T14:36:17;17.70;99.90
48206;DHT22;33995;48.202;16.260;2022-11-03T14:38:46;17.60;99.90
48206;DHT22;33995;48.202;16.260;2022-11-03T14:41:15;17.30;99.90
48206;DHT22;33995;48.202;16.260;2022-11-03T14:44:07;17.10;99.90
48206;DHT22;33995;48.202;16.260;2022-11-03T14:46:49;16.90;99.90
48206;DHT22;33995;48.202;16.260;2022-11-03T14:49:19;16.90;99.90
48206;DHT22;33995;48.202;16.260;2022-11-03T14:51:50;16.80;99.90
48206;DHT22;33995;48.202;16.260;2022-11-03T14:54:23;16.70;99.90
48206;DHT22;33995;48.202;16.260;2022-11-03T14:57:04;16.70;99.90
48206;DHT22;33995;48.202;16.260;2022-11-03T14:59:33;16.80;99.90
48206;DHT22;33995;48.202;16.260;2022-11-03T15:02:14;16.80;99.90
48206;DHT22;33995;48.202;16.260;2022-11-03T15:04:45;16.80;99.90
48206;DHT22;33995;48.202;16.260;2022-11-03T15:07:15;16.60;99.90
48206;DHT22;33995;48.202;16.260;2022-11-03T15:09:46;16.40;99.90
48206;DHT22;33995;48.202;16.260;2022-11-03T15:12:13;16.40;99.90
48206;DHT22;33995;48.202;16.260;2022-11-03T15:14:43;16.40;99.90
48206;DHT22;33995;48.202;16.260;2022-11-03T15:17:11;16.30;99.90
48206;DHT22;33995;48.202;16.260;2022-11-03T15:19:40;16.30;99.90
48206;DHT22;33995;48.202;16.260;2022-11-03T15:22:10;16.30;99.90
48206;DHT22;33995;48.202;16.260;2022-11-03T15:24:42;16.20;99.90
48206;DHT22;33995;48.202;16.260;2022-11-03T15:27:41;16.30;99.90
48206;DHT22;33995;48.202;16.260;2022-11-03T15:30:12;16.30;99.90
48206;DHT22;33995;48.202;16.260;2022-11-03T15:32:44;16.30;99.90
48206;DHT22;33995;48.202;16.260;2022-11-03T15:35:12;16.10;99.90
48206;DHT22;33995;48.202;16.260;2022-11-03T15:37:44;16.00;99.90
48206;DHT22;33995;48.202;16.260;2022-11-03T15:40:25;16.00;99.90
48206;DHT22;33995;48.202;16.260;2022-11-03T15:42:57;16.00;99.90
48206;DHT22;33995;48.202;16.260;2022-11-03T15:45:32;15.90;99.90
48206;DHT22;33995;48.202;16.260;2022-11-03T15:48:05;15.80;99.90
48206;DHT22;33995;48.202;16.260;2022-11-03T15:50:49;15.70;99.90
48206;DHT22;33995;48.202;16.260;2022-11-03T15:53:18;15.70;99.90
48206;DHT22;33995;48.202;16.260;2022-11-03T15:55:48;15.60;99.90
48206;DHT22;33995;48.202;16.260;2022-11-03T15:58:20;15.70;99.90
48206;DHT22;33995;48.202;16.260;2022-11-03T16:00:57;15.60;99.90
48206;DHT22;33995;48.202;16.260;2022-11-03T16:03:34;15.50;99.90
48206;DHT22;33995;48.202;16.260;2022-11-03T16:06:17;15.30;99.90
48206;DHT22;33995;48.202;16.260;2022-11-03T16:09:03;15.20;99.90
48206;DHT22;33995;48.202;16.260;2022-11-03T16:11:34;15.20;99.90
48206;DHT22;33995;48.202;16.260;2022-11-03T16:14:01;15.10;99.90
48206;DHT22;33995;48.202;16.260;2022-11-03T16:16:32;15.00;99.90
48206;DHT22;33995;48.202;16.260;2022-11-03T16:19:04;15.00;99.90
48206;DHT22;33995;48.202;16.260;2022-11-03T16:21:45;14.90;99.90
48206;DHT22;33995;48.202;16.260;2022-11-03T16:24:13;14.80;99.90
48206;DHT22;33995;48.202;16.260;2022-11-03T16:26:44;14.80;99.90
48206;DHT22;33995;48.202;16.260;2022-11-03T16:29:16;14.70;99.90
48206;DHT22;33995;48.202;16.260;2022-11-03T16:31:57;14.70;99.90
48206;DHT22;33995;48.202;16.260;2022-11-03T16:34:27;14.60;99.90
48206;DHT22;33995;48.202;16.260;2022-11-03T16:37:08;14.50;99.90
48206;DHT22;33995;48.202;16.260;2022-11-03T16:39:40;14.50;99.90
48206;DHT22;33995;48.202;16.260;2022-11-03T16:42:12;14.50;99.90
48206;DHT22;33995;48.202;16.260;2022-11-03T16:44:46;14.40;99.90
48206;DHT22;33995;48.202;16.260;2022-11-03T16:47:21;14.40;99.90
48206;DHT22;33995;48.202;16.260;2022-11-03T16:49:52;14.40;99.90
48206;DHT22;33995;48.202;16.260;2022-11-03T16:52:19;14.30;99.90
48206;DHT22;33995;48.202;16.260;2022-11-03T16:54:53;14.40;99.90
48206;DHT22;33995;48.202;16.260;2022-11-03T16:57:23;14.40;99.90
48206;DHT22;33995;48.202;16.260;2022-11-03T16:59:54;14.30;99.90
48206;DHT22;33995;48.202;16.260;2022-11-03T17:02:39;14.20;99.90
48206;DHT22;33995;48.202;16.260;2022-11-03T17:05:11;14.20;99.90
48206;DHT22;33995;48.202;16.260;2022-11-03T17:07:53;14.20;99.90
48206;DHT22;33995;48.202;16.260;2022-11-03T17:10:27;14.10;99.90
48206;DHT22;33995;48.202;16.260;2022-11-03T17:13:01;14.20;99.90
48206;DHT22;33995;48.202;16.260;2022-11-03T17:15:37;14.10;99.90
48206;DHT22;33995;48.202;16.260;2022-11-03T17:18:19;14.10;99.90
48206;DHT22;33995;48.202;16.260;2022-11-03T17:20:49;14.10;99.90
48206;DHT22;33995;48.202;16.260;2022-11-03T17:23:19;14.10;99.90
48206;DHT22;33995;48.202;16.260;2022-11-03T17:25:49;14.00;99.90
48206;DHT22;33995;48.202;16.260;2022-11-03T17:28:22;14.00;99.90
48206;DHT22;33995;48.202;16.260;2022-11-03T17:30:51;14.00;99.90
48206;DHT22;33995;48.202;16.260;2022-11-03T17:33:27;14.00;99.90
48206;DHT22;33995;48.202;16.260;2022-11-03T17:35:57;13.90;99.90
48206;DHT22;33995;48.202;16.260;2022-11-03T17:38:35;13.90;99.90
48206;DHT22;33995;48.202;16.260;2022-11-03T17:41:15;13.90;99.90
48206;DHT22;33995;48.202;16.260;2022-11-03T17:43:52;13.90;99.90
48206;DHT22;33995;48.202;16.260;2022-11-03T17:46:21;13.80;99.90
48206;DHT22;33995;48.202;16.260;2022-11-03T17:49:04;13.80;99.90
48206;DHT22;33995;48.202;16.260;2022-11-03T17:51:39;13.80;99.90
48206;DHT22;33995;48.202;16.260;2022-11-03T17:54:14;13.80;99.90
48206;DHT22;33995;48.202;16.260;2022-11-03T17:56:46;13.80;99.90
48206;DHT22;33995;48.202;16.260;2022-11-03T17:59:15;13.70;99.90
48206;DHT22;33995;48.202;16.260;2022-11-03T18:01:45;13.70;99.90
48206;DHT22;33995;48.202;16.260;2022-11-03T18:04:29;13.70;99.90
48206;DHT22;33995;48.202;16.260;2022-11-03T18:07:28;13.60;99.90
48206;DHT22;33995;48.202;16.260;2022-11-03T18:10:11;13.60;99.90
48206;DHT22;33995;48.202;16.260;2022-11-03T18:12:51;13.60;99.90
48206;DHT22;33995;48.202;16.260;2022-11-03T18:15:42;13.60;99.90
48206;DHT22;33995;48.202;16.260;2022-11-03T18:18:37;13.60;99.90
48206;DHT22;33995;48.202;16.260;2022-11-03T18:21:34;13.50;99.90
48206;DHT22;33995;48.202;16.260;2022-11-03T18:24:15;13.60;99.90
48206;DHT22;33995;48.202;16.260;2022-11-03T18:26:49;13.60;99.90
48206;DHT22;33995;48.202;16.260;2022-11-03T18:29:19;13.60;99.90
48206;DHT22;33995;48.202;16.260;2022-11-03T18:31:53;13.60;99.90
48206;DHT22;33995;48.202;16.260;2022-11-03T18:34:41;13.60;99.90
48206;DHT22;33995;48.202;16.260;2022-11-03T18:37:14;13.60;99.90
48206;DHT22;33995;48.202;16.260;2022-11-03T18:39:56;13.60;99.90
48206;DHT22;33995;48.202;16.260;2022-11-03T18:42:25;13.60;99.90
48206;DHT22;33995;48.202;16.260;2022-11-03T18:45:15;13.60;99.90
48206;DHT22;33995;48.202;16.260;2022-11-03T18:47:51;13.60;99.90
48206;DHT22;33995;48.202;16.260;2022-11-03T18:50:25;13.70;99.90
48206;DHT22;33995;48.202;16.260;2022-11-03T18:52:54;13.60;99.90
48206;DHT22;33995;48.202;16.260;2022-11-03T18:55:41;13.70;99.90
48206;DHT22;33995;48.202;16.260;2022-11-03T18:58:24;13.70;99.90
48206;DHT22;33995;48.202;16.260;2022-11-03T19:00:57;13.60;99.90
48206;DHT22;33995;48.202;16.260;2022-11-03T19:03:30;13.60;99.90
48206;DHT22;33995;48.202;16.260;2022-11-03T19:06:07;13.60;99.90
48206;DHT22;33995;48.202;16.260;2022-11-03T19:08:46;13.60;99.90
48206;DHT22;33995;48.202;16.260;2022-11-03T19:11:25;13.60;99.90
48206;DHT22;33995;48.202;16.260;2022-11-03T19:13:54;13.50;99.90
48206;DHT22;33995;48.202;16.260;2022-11-03T19:16:31;13.50;99.90
48206;DHT22;33995;48.202;16.260;2022-11-03T19:19:00;13.50;99.90
48206;DHT22;33995;48.202;16.260;2022-11-03T19:21:32;13.40;99.90
48206;DHT22;33995;48.202;16.260;2022-11-03T19:24:10;13.30;99.90
48206;DHT22;33995;48.202;16.260;2022-11-03T19:26:57;13.30;99.90
48206;DHT22;33995;48.202;16.260;2022-11-03T19:29:43;13.20;99.90
48206;DHT22;33995;48.202;16.260;2022-11-03T19:32:27;13.20;99.90
48206;DHT22;33995;48.202;16.260;2022-11-03T19:38:17;13.10;99.90
48206;DHT22;33995;48.202;16.260;2022-11-03T19:41:02;13.00;99.90
48206;DHT22;33995;48.202;16.260;2022-11-03T19:43:55;13.00;99.90
48206;DHT22;33995;48.202;16.260;2022-11-03T19:46:33;13.00;99.90
48206;DHT22;33995;48.202;16.260;2022-11-03T19:49:18;13.00;99.90
48206;DHT22;33995;48.202;16.260;2022-11-03T19:51:55;13.00;99.90
48206;DHT22;33995;48.202;16.260;2022-11-03T19:54:33;13.00;99.90
48206;DHT22;33995;48.202;16.260;2022-11-03T19:57:09;13.00;99.90
48206;DHT22;33995;48.202;16.260;2022-11-03T19:59:46;13.00;99.90
48206;DHT22;33995;48.202;16.260;2022-11-03T20:02:49;13.00;99.90
48206;DHT22;33995;48.202;16.260;2022-11-03T20:05:31;12.90;99.90
48206;DHT22;33995;48.202;16.260;2022-11-03T20:08:04;13.00;99.90
48206;DHT22;33995;48.202;16.260;2022-11-03T20:10:44;13.00;99.90
48206;DHT22;33995;48.202;16.260;2022-11-03T20:13:36;13.00;99.90
48206;DHT22;33995;48.202;16.260;2022-11-03T20:16:11;13.00;99.90
48206;DHT22;33995;48.202;16.260;2022-11-03T20:18:42;13.00;99.90
48206;DHT22;33995;48.202;16.260;2022-11-03T20:21:21;13.00;99.90
48206;DHT22;33995;48.202;16.260;2022-11-03T20:24:23;13.00;99.90
48206;DHT22;33995;48.202;16.260;2022-11-03T20:27:09;12.90;99.90
48206;DHT22;33995;48.202;16.260;2022-11-03T20:29:43;12.90;99.90
48206;DHT22;33995;48.202;16.260;2022-11-03T20:32:12;12.90;99.90
48206;DHT22;33995;48.202;16.260;2022-11-03T20:34:50;12.90;99.90
48206;DHT22;33995;48.202;16.260;2022-11-03T20:37:21;12.90;99.90
48206;DHT22;33995;48.202;16.260;2022-11-03T20:39:59;12.90;99.90
48206;DHT22;33995;48.202;16.260;2022-11-03T20:42:31;12.80;99.90
48206;DHT22;33995;48.202;16.260;2022-11-03T20:45:18;12.80;99.90
48206;DHT22;33995;48.202;16.260;2022-11-03T20:47:50;12.80;99.90
48206;DHT22;33995;48.202;16.260;2022-11-03T20:50:34;12.70;99.90
48206;DHT22;33995;48.202;16.260;2022-11-03T20:53:10;12.70;99.90
48206;DHT22;33995;48.202;16.260;2022-11-03T20:55:41;12.70;99.90
48206;DHT22;33995;48.202;16.260;2022-11-03T20:58:11;12.60;99.90
48206;DHT22;33995;48.202;16.260;2022-11-03T21:00:46;12.60;99.90
48206;DHT22;33995;48.202;16.260;2022-11-03T21:03:28;12.50;99.90
48206;DHT22;33995;48.202;16.260;2022-11-03T21:06:20;12.60;99.90
48206;DHT22;33995;48.202;16.260;2022-11-03T21:08:49;12.50;99.90
48206;DHT22;33995;48.202;16.260;2022-11-03T21:11:28;12.40;99.90
48206;DHT22;33995;48.202;16.260;2022-11-03T21:14:25;12.50;99.90
48206;DHT22;33995;48.202;16.260;2022-11-03T21:16:57;12.40;99.90
48206;DHT22;33995;48.202;16.260;2022-11-03T21:19:50;12.40;99.90
48206;DHT22;33995;48.202;16.260;2022-11-03T21:22:42;12.40;99.90
48206;DHT22;33995;48.202;16.260;2022-11-03T21:25:21;12.30;99.90
48206;DHT22;33995;48.202;16.260;2022-11-03T21:28:02;12.30;99.90
48206;DHT22;33995;48.202;16.260;2022-11-03T21:30:40;12.20;99.90
48206;DHT22;33995;48.202;16.260;2022-11-03T21:33:15;12.20;99.90
48206;DHT22;33995;48.202;16.260;2022-11-03T21:35:51;12.20;99.90
48206;DHT22;33995;48.202;16.260;2022-11-03T21:38:25;12.30;99.90
48206;DHT22;33995;48.202;16.260;2022-11-03T21:41:06;12.50;99.90
48206;DHT22;33995;48.202;16.260;2022-11-03T21:43:53;12.50;99.90
48206;DHT22;33995;48.202;16.260;2022-11-03T21:46:42;12.40;99.90
48206;DHT22;33995;48.202;16.260;2022-11-03T21:49:28;12.20;99.90
48206;DHT22;33995;48.202;16.260;2022-11-03T21:52:17;12.10;99.90
48206;DHT22;33995;48.202;16.260;2022-11-03T21:55:18;12.10;99.90
48206;DHT22;33995;48.202;16.260;2022-11-03T21:57:48;12.00;99.90
48206;DHT22;33995;48.202;16.260;2022-11-03T22:00:31;11.90;99.90
48206;DHT22;33995;48.202;16.260;2022-11-03T22:03:02;11.80;99.90
48206;DHT22;33995;48.202;16.260;2022-11-03T22:05:38;11.80;99.90
48206;DHT22;33995;48.202;16.260;2022-11-03T22:08:10;11.80;99.90
48206;DHT22;33995;48.202;16.260;2022-11-03T22:10:41;11.80;99.90
48206;DHT22;33995;48.202;16.260;2022-11-03T22:13:23;11.90;99.90
48206;DHT22;33995;48.202;16.260;2022-11-03T22:15:55;11.80;99.90
48206;DHT22;33995;48.202;16.260;2022-11-03T22:18:45;11.90;99.90
48206;DHT22;33995;48.202;16.260;2022-11-03T22:21:14;11.90;99.90
48206;DHT22;33995;48.202;16.260;2022-11-03T22:24:04;11.80;99.90
48206;DHT22;33995;48.202;16.260;2022-11-03T22:26:52;11.80;99.90
48206;DHT22;33995;48.202;16.260;2022-11-03T22:29:29;11.70;99.90
48206;DHT22;33995;48.202;16.260;2022-11-03T22:32:18;11.70;99.90
48206;DHT22;33995;48.202;16.260;2022-11-03T22:34:47;11.70;99.90
48206;DHT22;33995;48.202;16.260;2022-11-03T22:37:37;11.60;99.90
48206;DHT22;33995;48.202;16.260;2022-11-03T22:40:06;11.60;99.90
48206;DHT22;33995;48.202;16.260;2022-11-03T22:42:53;11.60;99.90
48206;DHT22;33995;48.202;16.260;2022-11-03T22:45:41;11.50;99.90
48206;DHT22;33995;48.202;16.260;2022-11-03T22:48:32;11.50;99.90
48206;DHT22;33995;48.202;16.260;2022-11-03T22:51:05;11.50;99.90
48206;DHT22;33995;48.202;16.260;2022-11-03T22:53:40;11.60;99.90